메인 페이지
METAR-TAF:

METAR-TAF

공항 :

Duncan Municipal Airport (Halliburton Field)

Duncan, 오클라호마, 미국

위도: 34-28-15N, 경도: 097-57-36W, 고도: 339m

현재 날씨관측

예보는 26분 전, 21:35시(UTC)에 발표되었습니다.
남서13kt, 순간 최대 풍속 19kt
온도 20°C
습도 26%
기압 1021 hPa
시정: 16.1km
고도 12000ft 상공 구름 보통

METAR: KDUC 192135Z AUTO 22013G19KT 10SM SCT120 20/00 A3016 RMK AO2 T02021004

시각: 17:01 (22:01 UTC)


TAF: 누락

4,000개 이상의 공항 관측 자료 및 예보 (METAR 및 TAF 보고).

지도상에서 검색 가능한 기상관측소가 노란 점과 빨간 점으로 표시되어 있습니다.

기상관측소 명을 보려면 표시 위로 마우스를 이동하세요.

날씨 관측과 예보를 보려면 클릭하세요.

지도 변경 : 확대하려면 엑스 표시가 있는 녹색 버튼, 축소하려면 빼기 표시가 있는 녹색 버튼, 다음 페이지의 지도를 보려면 녹색 화살표를 클릭하세요.


METAR-TAF: